createdAt,value
2019-03-04T00:00:40.516Z,3.00
2019-03-04T00:03:07.962Z,3.27
2019-03-04T00:05:35.410Z,2.47
2019-03-04T00:08:02.880Z,2.80
2019-03-04T00:10:30.221Z,2.87
2019-03-04T00:12:57.462Z,3.47
2019-03-04T00:15:24.707Z,2.90
2019-03-04T00:17:52.069Z,3.20
2019-03-04T00:20:19.635Z,3.20
2019-03-04T00:22:46.871Z,2.90
2019-03-04T00:25:14.130Z,2.90
2019-03-04T00:27:41.368Z,2.50
2019-03-04T00:30:08.901Z,3.37
2019-03-04T00:32:36.322Z,3.10
2019-03-04T00:35:04.100Z,3.07
2019-03-04T00:37:31.375Z,2.83
2019-03-04T00:39:58.785Z,2.37
2019-03-04T00:42:26.005Z,2.40
2019-03-04T00:44:53.254Z,2.13
2019-03-04T00:47:20.505Z,2.67
2019-03-04T00:49:47.766Z,2.60
2019-03-04T00:52:15.009Z,2.83
2019-03-04T00:54:42.265Z,2.17
2019-03-04T00:57:09.489Z,2.07
2019-03-04T00:59:36.914Z,2.10
2019-03-04T01:02:04.253Z,2.50
2019-03-04T01:04:31.610Z,2.27
2019-03-04T01:06:59.030Z,2.23
2019-03-04T01:09:26.313Z,2.27
2019-03-04T01:11:53.674Z,4.63
2019-03-04T01:14:20.954Z,7.47
2019-03-04T01:16:48.338Z,4.13
2019-03-04T01:19:15.598Z,3.60
2019-03-04T01:21:42.900Z,3.20
2019-03-04T01:24:10.131Z,3.53
2019-03-04T01:26:37.360Z,3.83
2019-03-04T01:29:04.678Z,3.00
2019-03-04T01:31:32.038Z,4.57
2019-03-04T01:33:59.411Z,4.00
2019-03-04T01:36:26.658Z,3.30
2019-03-04T01:38:53.901Z,3.03
2019-03-04T01:41:21.251Z,3.10
2019-03-04T01:43:48.553Z,2.80
2019-03-04T01:46:16.974Z,2.67
2019-03-04T01:48:44.378Z,3.10
2019-03-04T01:51:11.691Z,3.97
2019-03-04T01:53:38.923Z,2.90
2019-03-04T01:56:06.183Z,3.50
2019-03-04T01:58:33.400Z,4.13
2019-03-04T02:01:00.618Z,3.10
2019-03-04T02:03:27.854Z,2.67
2019-03-04T02:05:55.249Z,2.73
2019-03-04T02:08:22.517Z,3.37
2019-03-04T02:10:49.742Z,2.50
2019-03-04T02:13:17.066Z,2.90
2019-03-04T02:15:44.314Z,3.20
2019-03-04T02:18:11.585Z,3.83
2019-03-04T02:20:38.929Z,3.27
2019-03-04T02:23:06.184Z,2.97
2019-03-04T02:26:17.663Z,4.10
2019-03-04T02:28:45.058Z,3.00
2019-03-04T02:31:12.557Z,2.67
2019-03-04T02:33:39.980Z,3.17
2019-03-04T02:36:07.215Z,3.07
2019-03-04T02:38:41.946Z,3.10
2019-03-04T02:41:09.208Z,2.70
2019-03-04T02:43:36.518Z,2.73
2019-03-04T02:46:03.819Z,2.90
2019-03-04T02:48:31.279Z,3.13
2019-03-04T02:50:58.534Z,2.67
2019-03-04T02:53:25.949Z,2.53
2019-03-04T02:55:53.320Z,2.90
2019-03-04T02:58:20.591Z,2.90
2019-03-04T03:00:47.967Z,3.00
2019-03-04T03:03:15.208Z,2.80
2019-03-04T03:05:42.583Z,2.67
2019-03-04T03:08:09.891Z,2.80
2019-03-04T03:10:37.323Z,3.53
2019-03-04T03:13:04.641Z,3.20
2019-03-04T03:15:31.967Z,2.70
2019-03-04T03:17:59.347Z,3.03
2019-03-04T03:20:26.599Z,3.07
2019-03-04T03:22:53.994Z,2.90
2019-03-04T03:25:21.376Z,3.00
2019-03-04T03:27:48.819Z,3.40
2019-03-04T03:30:16.302Z,4.20
2019-03-04T03:32:43.754Z,3.33
2019-03-04T03:35:11.141Z,3.80
2019-03-04T03:37:38.703Z,2.43
2019-03-04T03:40:07.792Z,2.80
2019-03-04T03:42:35.249Z,2.97
2019-03-04T03:45:02.868Z,3.40
2019-03-04T03:47:30.266Z,2.90
2019-03-04T03:49:57.746Z,2.50
2019-03-04T03:52:25.090Z,2.97
2019-03-04T03:54:52.438Z,3.10
2019-03-04T03:57:19.669Z,2.30
2019-03-04T03:59:46.907Z,3.00
2019-03-04T04:02:14.256Z,2.53
2019-03-04T04:04:41.690Z,2.23
2019-03-04T04:07:08.987Z,2.37
2019-03-04T04:09:36.237Z,2.60
2019-03-04T04:12:03.563Z,2.87
2019-03-04T04:14:31.022Z,2.33
2019-03-04T04:16:58.364Z,2.37
2019-03-04T04:19:25.760Z,2.67
2019-03-04T04:21:53.098Z,2.90
2019-03-04T04:24:20.464Z,3.17
2019-03-04T04:26:48.094Z,3.00
2019-03-04T04:29:15.375Z,3.00
2019-03-04T04:31:43.397Z,3.00
2019-03-04T04:34:10.782Z,3.00
2019-03-04T04:36:38.234Z,3.07
2019-03-04T04:39:06.550Z,3.73
2019-03-04T04:41:33.778Z,3.30
2019-03-04T04:44:01.052Z,4.40
2019-03-04T04:46:45.049Z,3.30
2019-03-04T04:49:12.305Z,2.97
2019-03-04T04:51:39.670Z,3.33
2019-03-04T04:54:07.145Z,2.73
2019-03-04T04:56:34.487Z,3.50
2019-03-04T04:59:01.725Z,3.53
2019-03-04T05:01:29.166Z,3.23
2019-03-04T05:03:56.403Z,3.70
2019-03-04T05:06:23.625Z,2.87
2019-03-04T05:08:51.127Z,2.70
2019-03-04T05:11:18.488Z,2.93
2019-03-04T05:13:45.942Z,3.40
2019-03-04T05:16:13.186Z,3.57
2019-03-04T05:18:40.542Z,3.67
2019-03-04T05:21:07.790Z,3.27
2019-03-04T05:23:35.053Z,3.73
2019-03-04T05:26:02.308Z,4.07
2019-03-04T05:28:29.746Z,3.33
2019-03-04T05:30:57.015Z,3.70
2019-03-04T05:33:24.254Z,3.50
2019-03-04T05:35:51.611Z,3.73
2019-03-04T05:38:18.897Z,3.53
2019-03-04T05:40:46.121Z,3.20
2019-03-04T05:43:13.441Z,4.03
2019-03-04T05:45:40.677Z,3.43
2019-03-04T05:48:07.903Z,4.23
2019-03-04T05:50:35.151Z,3.30
2019-03-04T05:53:02.483Z,3.00
2019-03-04T05:55:29.863Z,4.13
2019-03-04T05:57:57.121Z,3.40
2019-03-04T06:00:25.713Z,3.10
2019-03-04T06:02:53.142Z,3.53
2019-03-04T06:05:20.389Z,2.80
2019-03-04T06:07:53.641Z,4.17
2019-03-04T06:10:20.986Z,4.40
2019-03-04T06:12:48.363Z,3.60
2019-03-04T06:15:17.326Z,4.30
2019-03-04T06:17:44.601Z,3.93
2019-03-04T06:20:13.080Z,3.63
2019-03-04T06:22:40.329Z,3.60
2019-03-04T06:25:10.758Z,4.20
2019-03-04T06:27:38.038Z,5.30
2019-03-04T06:30:07.022Z,3.53
2019-03-04T06:32:34.377Z,4.03
2019-03-04T06:35:01.666Z,3.53
2019-03-04T06:37:28.918Z,3.63
2019-03-04T06:39:57.125Z,3.60
2019-03-04T06:42:24.518Z,4.20
2019-03-04T06:44:51.870Z,3.90
2019-03-04T06:47:19.110Z,3.70
2019-03-04T06:49:46.446Z,3.20
2019-03-04T06:52:13.746Z,3.80
2019-03-04T06:55:07.776Z,3.20
2019-03-04T06:57:47.298Z,3.23
2019-03-04T07:01:01.433Z,4.33
2019-03-04T07:03:41.151Z,3.43
2019-03-04T07:06:08.513Z,2.30
2019-03-04T07:09:15.641Z,3.10
2019-03-04T07:11:44.230Z,3.07
2019-03-04T07:14:11.464Z,3.00
2019-03-04T07:16:38.695Z,2.80
2019-03-04T07:19:26.458Z,3.10
2019-03-04T07:21:53.697Z,3.20
2019-03-04T07:24:21.026Z,4.33
2019-03-04T07:26:48.452Z,3.47
2019-03-04T07:29:15.702Z,3.50
2019-03-04T07:31:43.146Z,3.40
2019-03-04T07:34:10.383Z,5.33
2019-03-04T07:36:37.682Z,5.73
2019-03-04T07:39:15.946Z,6.47
2019-03-04T07:41:54.271Z,3.77
2019-03-04T07:44:21.482Z,3.33
2019-03-04T07:46:48.805Z,2.60
2019-03-04T07:49:16.163Z,3.90
2019-03-04T07:51:43.411Z,3.50
2019-03-04T07:54:10.684Z,3.10
2019-03-04T07:56:37.918Z,3.90
2019-03-04T07:59:05.327Z,3.93
2019-03-04T08:01:32.567Z,3.30
2019-03-04T08:03:59.893Z,3.37
2019-03-04T08:06:27.131Z,2.63
2019-03-04T08:09:12.294Z,4.30
2019-03-04T08:12:13.137Z,2.77
2019-03-04T08:14:40.527Z,3.57
2019-03-04T08:17:07.799Z,3.93
2019-03-04T08:19:35.027Z,3.57
2019-03-04T08:22:02.262Z,3.90
2019-03-04T08:24:29.505Z,3.87
2019-03-04T08:26:56.767Z,4.27
2019-03-04T08:29:24.019Z,3.30
2019-03-04T08:31:51.273Z,3.23
2019-03-04T08:34:18.510Z,3.53
2019-03-04T08:36:45.747Z,3.97
2019-03-04T08:39:13.245Z,3.70
2019-03-04T08:41:40.519Z,3.67
2019-03-04T08:44:07.815Z,3.93
2019-03-04T08:46:35.118Z,3.23
2019-03-04T08:49:02.351Z,3.90
2019-03-04T08:51:29.595Z,3.97
2019-03-04T08:53:56.823Z,4.10
2019-03-04T08:56:24.039Z,3.67
2019-03-04T08:58:51.879Z,3.87
2019-03-04T09:01:19.100Z,3.33
2019-03-04T09:03:46.449Z,3.73
2019-03-04T09:06:13.802Z,4.43
2019-03-04T09:08:41.040Z,5.13
2019-03-04T09:11:08.874Z,4.57
2019-03-04T09:13:36.118Z,4.20
2019-03-04T09:16:03.450Z,3.70
2019-03-04T09:18:32.085Z,3.80
2019-03-04T09:20:59.642Z,4.27
2019-03-04T09:23:26.874Z,4.43
2019-03-04T09:26:03.654Z,4.27
2019-03-04T09:28:30.915Z,4.70
2019-03-04T09:30:58.194Z,4.20
2019-03-04T09:33:25.545Z,3.90
2019-03-04T09:35:52.766Z,4.23
2019-03-04T09:38:20.017Z,4.30
2019-03-04T09:40:47.249Z,4.83
2019-03-04T09:43:14.588Z,3.97
2019-03-04T09:45:41.829Z,3.53
2019-03-04T09:48:09.058Z,5.07
2019-03-04T09:50:36.269Z,3.40
2019-03-04T09:53:03.626Z,3.23
2019-03-04T09:55:31.224Z,3.50
2019-03-04T09:57:58.590Z,2.40
2019-03-04T10:00:54.433Z,2.87
2019-03-04T10:03:46.062Z,3.17
2019-03-04T10:06:28.945Z,2.47
2019-03-04T10:09:09.411Z,2.60
2019-03-04T10:12:03.886Z,3.37
2019-03-04T10:15:10.332Z,3.10
2019-03-04T10:18:11.655Z,2.63
2019-03-04T10:21:23.630Z,2.40
2019-03-04T10:24:36.648Z,2.67
2019-03-04T10:27:25.562Z,3.20
2019-03-04T10:30:26.490Z,3.73
2019-03-04T10:33:28.979Z,2.73
2019-03-04T10:36:40.929Z,2.40
2019-03-04T10:39:55.999Z,3.47
2019-03-04T10:43:21.231Z,4.80
2019-03-04T10:46:19.530Z,3.07
2019-03-04T10:48:46.763Z,5.20
2019-03-04T10:51:13.973Z,3.37
2019-03-04T10:53:41.206Z,4.60
2019-03-04T10:56:08.446Z,3.73
2019-03-04T10:58:35.671Z,2.10
2019-03-04T11:01:03.109Z,2.93
2019-03-04T11:03:30.334Z,2.47
2019-03-04T11:05:57.595Z,3.03
2019-03-04T11:08:24.832Z,3.43
2019-03-04T11:10:52.169Z,3.00
2019-03-04T11:13:19.401Z,2.40
2019-03-04T11:15:46.738Z,1.90
2019-03-04T11:18:13.975Z,3.90
2019-03-04T11:20:41.231Z,3.83
2019-03-04T11:23:08.662Z,3.17
2019-03-04T11:25:36.017Z,3.30
2019-03-04T11:28:03.349Z,2.40
2019-03-04T11:30:31.602Z,2.60
2019-03-04T11:32:58.853Z,2.13
2019-03-04T11:35:26.081Z,2.27
2019-03-04T11:37:53.461Z,2.13
2019-03-04T11:40:34.649Z,1.60
2019-03-04T11:43:02.002Z,1.63
2019-03-04T11:45:29.383Z,1.90
2019-03-04T11:47:56.622Z,1.67
2019-03-04T11:50:23.962Z,2.00
2019-03-04T11:52:51.258Z,1.33
2019-03-04T11:55:19.195Z,1.47
2019-03-04T11:57:46.433Z,1.53
2019-03-04T12:00:22.238Z,1.20
2019-03-04T12:02:49.474Z,1.40
2019-03-04T12:05:16.709Z,1.30
2019-03-04T12:07:43.968Z,1.50
2019-03-04T12:10:12.290Z,1.33
2019-03-04T12:12:39.640Z,1.50
2019-03-04T12:15:09.262Z,1.53
2019-03-04T12:17:36.490Z,1.40
2019-03-04T12:20:05.358Z,1.40
2019-03-04T12:22:32.614Z,1.63
2019-03-04T12:24:59.951Z,1.50
2019-03-04T12:27:27.194Z,1.60
2019-03-04T12:29:54.483Z,1.30
2019-03-04T12:32:24.910Z,1.67
2019-03-04T12:34:52.165Z,2.13
2019-03-04T12:37:19.502Z,2.60
2019-03-04T12:39:46.843Z,1.77
2019-03-04T12:42:14.079Z,1.60
2019-03-04T12:44:41.309Z,1.60
2019-03-04T12:47:08.642Z,2.10
2019-03-04T12:49:35.893Z,2.40
2019-03-04T12:52:03.699Z,1.80
2019-03-04T12:54:30.954Z,1.67
2019-03-04T12:56:58.201Z,1.60
2019-03-04T12:59:25.542Z,1.57
2019-03-04T13:01:52.759Z,1.90
2019-03-04T13:04:20.009Z,1.63
2019-03-04T13:06:47.354Z,1.70
2019-03-04T13:09:14.961Z,1.70
2019-03-04T13:11:42.425Z,1.60
2019-03-04T13:14:09.690Z,1.73
2019-03-04T13:16:36.910Z,1.77
2019-03-04T13:19:04.281Z,1.63
2019-03-04T13:21:31.514Z,2.47
2019-03-04T13:23:58.751Z,1.63
2019-03-04T13:26:25.973Z,1.57
2019-03-04T13:28:53.222Z,1.67
2019-03-04T13:31:20.530Z,2.17
2019-03-04T13:33:47.797Z,2.07
2019-03-04T13:36:15.357Z,2.10
2019-03-04T13:38:42.634Z,2.10
2019-03-04T13:41:10.060Z,3.53
2019-03-04T13:43:37.297Z,2.47
2019-03-04T13:46:04.573Z,1.60
2019-03-04T13:48:31.805Z,1.80
2019-03-04T13:50:59.177Z,3.33
2019-03-04T13:53:26.398Z,2.10
2019-03-04T13:55:53.638Z,1.80
2019-03-04T13:58:20.865Z,2.23
2019-03-04T14:00:48.104Z,3.00
2019-03-04T14:03:15.437Z,2.23
2019-03-04T14:05:42.996Z,1.80
2019-03-04T14:08:10.361Z,2.47
2019-03-04T14:10:37.628Z,1.90
2019-03-04T14:13:04.969Z,2.27
2019-03-04T14:15:34.178Z,1.97
2019-03-04T14:18:01.442Z,2.00
2019-03-04T14:20:28.669Z,2.53
2019-03-04T14:22:57.976Z,4.40
2019-03-04T14:25:25.166Z,2.70
2019-03-04T14:27:52.394Z,1.90
2019-03-04T14:30:19.624Z,2.40
2019-03-04T14:32:46.994Z,2.40
2019-03-04T14:35:14.274Z,2.37
2019-03-04T14:37:41.843Z,1.97
2019-03-04T14:40:12.464Z,2.10
2019-03-04T14:42:40.158Z,2.20
2019-03-04T14:45:09.603Z,2.17
2019-03-04T14:47:36.874Z,2.30
2019-03-04T14:50:09.826Z,2.57
2019-03-04T14:52:35.483Z,2.10
2019-03-04T14:55:03.189Z,2.50
2019-03-04T14:57:30.543Z,2.33
2019-03-04T14:59:57.767Z,2.50
2019-03-04T15:02:25.103Z,2.23
2019-03-04T15:04:52.531Z,2.20
2019-03-04T15:07:19.886Z,1.67
2019-03-04T15:09:49.569Z,2.07
2019-03-04T15:12:16.307Z,1.43
2019-03-04T15:14:43.664Z,1.33
2019-03-04T15:17:19.026Z,1.70
2019-03-04T15:19:46.606Z,1.70
2019-03-04T15:22:13.869Z,1.40
2019-03-04T15:24:41.199Z,1.20
2019-03-04T15:27:08.448Z,1.10
2019-03-04T15:29:35.711Z,1.50
2019-03-04T15:32:03.038Z,1.57
2019-03-04T15:34:30.249Z,1.50
2019-03-04T15:36:57.669Z,1.30
2019-03-04T15:39:25.006Z,1.10
2019-03-04T15:41:53.497Z,1.30
2019-03-04T15:44:20.738Z,1.37
2019-03-04T15:46:48.078Z,1.30
2019-03-04T15:49:15.306Z,1.47
2019-03-04T15:51:42.525Z,1.13
2019-03-04T15:54:09.944Z,1.50
2019-03-04T15:56:37.157Z,1.20
2019-03-04T15:59:04.526Z,1.47
2019-03-04T16:01:31.791Z,1.00
2019-03-04T16:03:59.041Z,1.10
2019-03-04T16:06:26.360Z,1.13
2019-03-04T16:08:53.583Z,1.67
2019-03-04T16:11:20.992Z,1.00
2019-03-04T16:13:53.310Z,1.20
2019-03-04T16:16:17.673Z,1.30
2019-03-04T16:18:45.134Z,1.80
2019-03-04T16:21:12.435Z,2.10
2019-03-04T16:23:39.687Z,1.10
2019-03-04T16:26:10.439Z,1.10
2019-03-04T16:28:37.641Z,1.17
2019-03-04T16:31:04.873Z,1.43
2019-03-04T16:33:32.102Z,1.60
2019-03-04T16:35:59.318Z,1.03
2019-03-04T16:38:26.587Z,0.90
2019-03-04T16:40:53.898Z,1.40
2019-03-04T16:43:21.131Z,1.60
2019-03-04T16:45:48.377Z,9.80
2019-03-04T16:48:15.770Z,4.00
2019-03-04T16:50:43.311Z,1.70
2019-03-04T16:53:11.634Z,3.10
2019-03-04T16:55:38.887Z,1.30
2019-03-04T16:58:06.133Z,1.30
2019-03-04T17:00:33.626Z,1.30
2019-03-04T17:03:01.022Z,1.20
2019-03-04T17:05:30.778Z,2.53
2019-03-04T17:07:58.463Z,0.90
2019-03-04T17:10:25.982Z,1.20
2019-03-04T17:12:54.485Z,1.00
2019-03-04T17:15:22.082Z,1.30
2019-03-04T17:17:49.757Z,1.53
2019-03-04T17:20:17.199Z,1.70
2019-03-04T17:22:44.538Z,1.20
2019-03-04T17:25:13.358Z,1.00
2019-03-04T17:27:41.508Z,2.03
2019-03-04T17:30:10.758Z,1.10
2019-03-04T17:32:38.629Z,1.30
2019-03-04T17:35:06.078Z,1.60
2019-03-04T17:37:33.356Z,1.40
2019-03-04T17:40:00.857Z,1.60
2019-03-04T17:42:28.158Z,1.90
2019-03-04T17:44:55.510Z,1.40
2019-03-04T17:47:22.833Z,2.43
2019-03-04T17:49:50.077Z,1.50
2019-03-04T17:52:17.323Z,1.83
2019-03-04T17:54:44.547Z,2.20
2019-03-04T17:57:12.332Z,1.90
2019-03-04T17:59:39.565Z,1.40
2019-03-04T18:02:07.136Z,1.20
2019-03-04T18:04:34.371Z,1.53
2019-03-04T18:07:01.818Z,1.73
2019-03-04T18:09:29.049Z,1.37
2019-03-04T18:11:56.289Z,1.70
2019-03-04T18:14:23.626Z,1.20
2019-03-04T18:16:50.856Z,1.40
2019-03-04T18:19:18.230Z,1.53
2019-03-04T18:21:45.486Z,1.30
2019-03-04T18:24:12.816Z,2.27
2019-03-04T18:26:58.962Z,1.67
2019-03-04T18:29:42.610Z,1.47
2019-03-04T18:32:55.253Z,2.10
2019-03-04T18:35:50.953Z,2.00
2019-03-04T18:38:40.949Z,3.07
2019-03-04T18:41:52.590Z,2.30
2019-03-04T18:44:39.128Z,2.13
2019-03-04T18:47:15.681Z,6.67
2019-03-04T18:49:42.958Z,2.50
2019-03-04T18:52:10.177Z,1.20
2019-03-04T18:54:37.439Z,2.67
2019-03-04T18:57:04.734Z,1.50
2019-03-04T18:59:32.115Z,2.30
2019-03-04T19:01:59.535Z,3.83
2019-03-04T19:04:27.939Z,1.77
2019-03-04T19:06:56.495Z,1.90
2019-03-04T19:09:24.326Z,2.27
2019-03-04T19:11:52.367Z,2.50
2019-03-04T19:14:20.164Z,1.70
2019-03-04T19:16:47.725Z,1.60
2019-03-04T19:19:15.123Z,1.80
2019-03-04T19:21:42.666Z,1.87
2019-03-04T19:24:09.913Z,1.93
2019-03-04T19:26:37.168Z,1.60
2019-03-04T19:29:04.542Z,1.40
2019-03-04T19:31:31.787Z,1.50
2019-03-04T19:33:59.026Z,1.43
2019-03-04T19:36:26.238Z,1.63
2019-03-04T19:38:53.487Z,1.40
2019-03-04T19:41:20.954Z,1.67
2019-03-04T19:43:48.194Z,2.00
2019-03-04T19:46:15.760Z,1.97
2019-03-04T19:48:43.123Z,1.43
2019-03-04T19:51:10.738Z,1.87
2019-03-04T19:53:37.977Z,1.50
2019-03-04T19:56:05.454Z,1.90
2019-03-04T19:58:32.818Z,2.07
2019-03-04T20:01:00.262Z,2.10
2019-03-04T20:03:27.755Z,1.57
2019-03-04T20:05:55.306Z,1.87
2019-03-04T20:08:22.627Z,1.83
2019-03-04T20:10:49.931Z,1.73
2019-03-04T20:13:17.350Z,1.50
2019-03-04T20:15:44.881Z,1.47
2019-03-04T20:18:12.140Z,1.77
2019-03-04T20:20:40.293Z,1.57
2019-03-04T20:23:07.618Z,1.30
2019-03-04T20:25:34.953Z,1.30
2019-03-04T20:28:02.167Z,1.60
2019-03-04T20:30:29.510Z,1.80
2019-03-04T20:32:56.830Z,1.80
2019-03-04T20:35:24.057Z,1.50
2019-03-04T20:37:52.123Z,1.53
2019-03-04T20:40:19.593Z,2.10
2019-03-04T20:42:46.821Z,1.63
2019-03-04T20:45:15.216Z,2.60
2019-03-04T20:47:42.444Z,1.23
2019-03-04T20:50:13.670Z,1.70
2019-03-04T20:52:40.922Z,1.50
2019-03-04T20:55:08.430Z,1.67
2019-03-04T20:57:35.771Z,1.30
2019-03-04T21:00:04.683Z,1.70
2019-03-04T21:02:31.935Z,1.67
2019-03-04T21:04:59.283Z,1.43
2019-03-04T21:07:26.524Z,1.30
2019-03-04T21:09:53.747Z,1.77
2019-03-04T21:12:20.977Z,1.90
2019-03-04T21:14:48.334Z,1.47
2019-03-04T21:17:15.582Z,1.53
2019-03-04T21:19:42.829Z,1.67
2019-03-04T21:22:10.082Z,1.20
2019-03-04T21:24:37.450Z,1.33
2019-03-04T21:27:04.694Z,1.70
2019-03-04T21:29:57.802Z,1.30
2019-03-04T21:32:42.559Z,1.50
2019-03-04T21:35:54.116Z,1.43
2019-03-04T21:38:25.096Z,1.60
2019-03-04T21:41:27.726Z,1.30
2019-03-04T21:44:12.550Z,1.20
2019-03-04T21:46:55.150Z,1.30
2019-03-04T21:49:24.760Z,1.10
2019-03-04T21:52:32.705Z,1.30
2019-03-04T21:55:01.553Z,1.47
2019-03-04T21:57:34.834Z,1.30
2019-03-04T22:00:04.161Z,1.40
2019-03-04T22:03:02.207Z,1.40
2019-03-04T22:05:29.614Z,1.47
2019-03-04T22:07:56.954Z,1.43
2019-03-04T22:10:24.459Z,1.57
2019-03-04T22:12:51.773Z,1.50
2019-03-04T22:15:32.003Z,1.70
2019-03-04T22:17:59.233Z,1.53
2019-03-04T22:20:26.474Z,1.30
2019-03-04T22:22:54.074Z,1.30
2019-03-04T22:25:21.486Z,1.40
2019-03-04T22:27:48.754Z,1.90
2019-03-04T22:30:16.173Z,1.30
2019-03-04T22:32:43.733Z,1.20
2019-03-04T22:35:11.814Z,1.00
2019-03-04T22:37:39.144Z,1.17
2019-03-04T22:40:09.022Z,1.30
2019-03-04T22:42:36.259Z,1.30
2019-03-04T22:45:06.200Z,1.10
2019-03-04T22:47:33.530Z,0.90
2019-03-04T22:50:00.773Z,1.13
2019-03-04T22:52:28.039Z,1.20
2019-03-04T22:54:55.368Z,1.20
2019-03-04T22:57:22.710Z,0.97
2019-03-04T22:59:49.959Z,1.00
2019-03-04T23:02:17.914Z,1.10
2019-03-04T23:04:47.871Z,1.23
2019-03-04T23:07:27.273Z,1.13
2019-03-04T23:10:00.380Z,0.97
2019-03-04T23:12:45.489Z,1.17
2019-03-04T23:15:15.670Z,1.17
2019-03-04T23:17:42.907Z,1.30
2019-03-04T23:20:10.241Z,1.23
2019-03-04T23:22:37.493Z,1.23
2019-03-04T23:25:05.521Z,1.07
2019-03-04T23:27:32.795Z,1.00
2019-03-04T23:30:00.018Z,1.20
2019-03-04T23:32:27.251Z,1.30
2019-03-04T23:34:54.482Z,1.30
2019-03-04T23:37:21.714Z,1.70
2019-03-04T23:39:48.942Z,1.10
2019-03-04T23:42:16.247Z,1.27
2019-03-04T23:44:43.470Z,1.10
2019-03-04T23:47:11.642Z,1.10
2019-03-04T23:49:38.882Z,1.20
2019-03-04T23:52:06.106Z,1.10
2019-03-04T23:54:33.341Z,1.20
2019-03-04T23:57:00.561Z,1.00
2019-03-04T23:59:27.926Z,1.10
